Time;durP1;ratioP1;P1;durP2;ratioP2;P2;SDS_P1;SDS_P2;PMS_P1;PMS_P2;Temp;Humidity;BMP_temperature;BMP_pressure;BME280_temperature;BME280_humidity;BME280_pressure;Samples;Min_cycle;Max_cycle;Signal;HPM_P1;HPM_P2
2024/03/26 00:01:06;;;;;;;9.75;4.30;;;7.60;99.90;;;;;;5001946;28;20080;-33
2024/03/26 00:03:32;;;;;;;7.32;3.67;;;7.60;99.90;;;;;;5002824;28;20033;-35
2024/03/26 00:05:57;;;;;;;6.72;3.55;;;7.60;99.90;;;;;;5001888;28;20025;-34
2024/03/26 00:08:23;;;;;;;7.38;4.30;;;7.60;99.90;;;;;;5002735;28;20037;-33
2024/03/26 00:10:49;;;;;;;9.48;4.18;;;7.60;99.90;;;;;;5003751;28;20583;-34
2024/03/26 00:13:14;;;;;;;7.43;4.10;;;7.60;99.90;;;;;;5003792;28;20038;-33
2024/03/26 00:15:40;;;;;;;10.05;3.67;;;7.60;99.90;;;;;;5003427;28;20052;-35
2024/03/26 00:18:05;;;;;;;8.13;3.95;;;7.60;99.90;;;;;;5003199;28;20030;-34
2024/03/26 00:20:31;;;;;;;6.43;3.40;;;7.60;99.90;;;;;;5003864;28;20030;-36
2024/03/26 00:22:56;;;;;;;8.40;4.00;;;7.50;99.90;;;;;;5003613;28;20022;-35
2024/03/26 00:25:22;;;;;;;10.18;3.80;;;7.50;99.90;;;;;;5003758;28;20026;-32
2024/03/26 00:27:48;;;;;;;9.50;4.55;;;7.50;99.90;;;;;;5002764;28;20054;-36
2024/03/26 00:30:13;;;;;;;10.55;4.07;;;7.50;99.90;;;;;;5003934;28;20038;-36
2024/03/26 00:32:39;;;;;;;11.07;5.35;;;7.40;99.90;;;;;;5002729;28;20036;-36
2024/03/26 00:35:05;;;;;;;7.03;3.92;;;7.50;99.90;;;;;;5002476;28;20608;-32
2024/03/26 00:37:33;;;;;;;11.57;4.15;;;7.40;99.90;;;;;;5004037;28;20022;-31
2024/03/26 00:39:59;;;;;;;14.15;4.75;;;7.40;99.90;;;;;;5003693;28;20635;-32
2024/03/26 00:42:24;;;;;;;10.75;4.70;;;7.40;99.90;;;;;;5002741;28;20034;-35
2024/03/26 00:44:50;;;;;;;10.25;3.58;;;7.40;99.90;;;;;;5002935;28;20030;-39
2024/03/26 00:47:15;;;;;;;10.57;4.50;;;7.40;99.90;;;;;;5001986;28;20036;-37
2024/03/26 00:49:41;;;;;;;8.20;4.55;;;7.30;99.90;;;;;;5003122;28;20025;-36
2024/03/26 00:52:06;;;;;;;11.50;4.30;;;7.30;99.90;;;;;;5002549;28;20112;-33
2024/03/26 00:54:32;;;;;;;9.20;3.92;;;7.30;99.90;;;;;;5002679;28;20424;-32
2024/03/26 00:56:57;;;;;;;12.63;4.70;;;7.30;99.90;;;;;;5002310;28;20356;-34
2024/03/26 00:59:23;;;;;;;9.13;4.20;;;7.30;99.90;;;;;;5002778;28;20057;-32
2024/03/26 01:01:51;;;;;;;11.60;3.92;;;7.30;99.90;;;;;;5002977;28;20058;-37
2024/03/26 01:04:20;;;;;;;9.98;3.83;;;7.30;99.90;;;;;;5002206;28;20054;-33
2024/03/26 01:06:45;;;;;;;9.80;3.80;;;7.20;99.90;;;;;;5003121;28;20084;-35
2024/03/26 01:09:12;;;;;;;11.77;3.70;;;7.30;99.90;;;;;;5001967;28;20101;-34
2024/03/26 01:11:37;;;;;;;11.75;4.15;;;7.30;99.90;;;;;;5002822;28;20058;-34
2024/03/26 01:14:03;;;;;;;8.45;4.15;;;7.30;99.90;;;;;;5002580;28;20131;-37
2024/03/26 01:16:28;;;;;;;9.35;3.75;;;7.30;99.90;;;;;;5002877;28;20120;-37
2024/03/26 01:18:54;;;;;;;6.97;3.97;;;7.30;99.90;;;;;;5002199;28;20042;-35
2024/03/26 01:21:19;;;;;;;7.80;3.67;;;7.30;99.90;;;;;;5001809;28;20038;-36
2024/03/26 01:23:45;;;;;;;9.63;4.30;;;7.30;99.90;;;;;;5002282;28;20033;-33
2024/03/26 01:26:10;;;;;;;8.98;3.50;;;7.30;99.90;;;;;;5001846;28;20111;-35
2024/03/26 01:28:36;;;;;;;7.90;3.65;;;7.30;99.90;;;;;;5002334;28;20050;-35
2024/03/26 01:31:01;;;;;;;6.85;3.35;;;7.20;99.90;;;;;;5002048;28;20457;-36
2024/03/26 01:33:33;;;;;;;9.57;3.83;;;7.20;99.90;;;;;;5001449;28;20076;-35
2024/03/26 01:35:59;;;;;;;10.13;3.83;;;7.20;99.90;;;;;;5002070;28;20026;-36
2024/03/26 01:38:24;;;;;;;10.73;4.22;;;7.20;99.90;;;;;;5002453;28;20437;-34
2024/03/26 01:40:50;;;;;;;9.35;4.05;;;7.20;99.90;;;;;;5002342;28;20503;-34
2024/03/26 01:43:16;;;;;;;9.18;3.75;;;7.20;99.90;;;;;;5001715;28;20028;-33
2024/03/26 01:45:42;;;;;;;11.63;4.20;;;7.20;99.90;;;;;;5001374;28;20022;-32
2024/03/26 01:48:11;;;;;;;6.22;3.85;;;7.20;99.90;;;;;;5002390;28;20473;-37
2024/03/26 01:50:37;;;;;;;10.63;3.72;;;7.10;99.90;;;;;;5001859;28;20079;-37
2024/03/26 01:53:06;;;;;;;8.63;4.40;;;7.10;99.90;;;;;;5001270;28;20477;-35
2024/03/26 01:55:33;;;;;;;8.77;4.05;;;7.10;99.90;;;;;;5001726;28;20037;-32
2024/03/26 01:58:00;;;;;;;9.88;3.78;;;7.10;99.90;;;;;;5000778;28;20034;-37
2024/03/26 02:00:29;;;;;;;7.93;4.18;;;7.10;99.90;;;;;;5001576;28;20029;-33
2024/03/26 02:02:54;;;;;;;10.65;4.38;;;7.10;99.90;;;;;;5001822;28;20440;-36
2024/03/26 02:05:20;;;;;;;9.30;3.33;;;7.10;99.90;;;;;;5001669;28;20123;-36
2024/03/26 02:07:46;;;;;;;12.48;4.25;;;7.10;99.90;;;;;;5002252;28;20480;-35
2024/03/26 02:10:12;;;;;;;9.60;4.00;;;7.10;99.90;;;;;;5001757;28;20026;-37
2024/03/26 02:12:40;;;;;;;8.68;3.70;;;7.10;99.90;;;;;;5002068;28;20045;-37
2024/03/26 02:15:07;;;;;;;7.05;4.20;;;7.10;99.90;;;;;;5000859;28;20604;-33
2024/03/26 02:17:32;;;;;;;13.68;4.32;;;7.10;99.90;;;;;;5002094;28;20066;-36
2024/03/26 02:19:59;;;;;;;9.50;4.13;;;7.10;99.90;;;;;;5001266;28;20069;-34
2024/03/26 02:22:25;;;;;;;8.82;4.10;;;7.10;99.90;;;;;;5000766;28;20084;-33
2024/03/26 02:24:50;;;;;;;8.60;3.85;;;7.00;99.90;;;;;;5001817;28;20866;-36
2024/03/26 02:27:16;;;;;;;9.55;3.50;;;7.10;99.90;;;;;;5001396;28;20036;-35
2024/03/26 02:29:42;;;;;;;7.22;3.95;;;7.00;99.90;;;;;;5001745;28;20687;-34
2024/03/26 02:32:07;;;;;;;11.25;3.70;;;7.10;99.90;;;;;;5000437;28;20033;-34
2024/03/26 02:34:33;;;;;;;7.35;3.40;;;7.10;99.90;;;;;;5000607;28;20117;-38
2024/03/26 02:36:59;;;;;;;9.68;3.60;;;7.10;99.90;;;;;;5001118;28;20036;-32
2024/03/26 02:39:24;;;;;;;11.85;4.68;;;7.10;99.90;;;;;;5001743;28;20051;-35
2024/03/26 02:41:52;;;;;;;9.15;4.10;;;7.10;99.90;;;;;;5000235;28;20055;-36
2024/03/26 02:44:17;;;;;;;8.25;3.92;;;7.10;99.90;;;;;;5000987;28;20492;-37
2024/03/26 02:46:43;;;;;;;9.70;3.80;;;7.10;99.90;;;;;;5001193;28;20030;-37
2024/03/26 02:49:08;;;;;;;9.00;3.85;;;7.10;99.90;;;;;;5000959;28;20026;-39
2024/03/26 02:51:34;;;;;;;7.85;3.72;;;7.10;99.90;;;;;;5001168;28;20033;-35
2024/03/26 02:53:59;;;;;;;10.68;4.05;;;7.00;99.90;;;;;;5000638;28;20042;-36
2024/03/26 02:56:25;;;;;;;11.38;3.90;;;7.00;99.90;;;;;;5000606;28;20083;-34
2024/03/26 02:58:51;;;;;;;8.70;4.10;;;7.00;99.90;;;;;;5000986;28;20030;-36
2024/03/26 03:01:17;;;;;;;8.10;3.72;;;7.00;99.90;;;;;;5000723;28;20049;-36
2024/03/26 03:03:43;;;;;;;13.13;4.28;;;7.00;99.90;;;;;;5000314;28;20786;-35
2024/03/26 03:06:09;;;;;;;10.25;4.28;;;7.00;99.90;;;;;;5000709;28;20030;-33
2024/03/26 03:08:36;;;;;;;8.55;4.40;;;7.00;99.90;;;;;;5001194;28;20025;-32
2024/03/26 03:11:02;;;;;;;10.30;3.65;;;7.00;99.90;;;;;;5000519;28;20036;-36
2024/03/26 03:13:28;;;;;;;9.13;3.53;;;7.00;99.90;;;;;;5000156;28;20033;-33
2024/03/26 03:15:54;;;;;;;7.20;3.47;;;6.90;99.90;;;;;;5000571;28;20033;-36
2024/03/26 03:18:20;;;;;;;9.30;4.57;;;6.90;99.90;;;;;;4999551;28;20614;-33
2024/03/26 03:20:46;;;;;;;9.32;4.15;;;6.90;99.90;;;;;;5001422;28;20029;-36
2024/03/26 03:23:14;;;;;;;11.15;4.13;;;6.90;99.90;;;;;;5000225;28;20537;-34
2024/03/26 03:25:40;;;;;;;10.05;3.72;;;6.80;99.90;;;;;;5001316;28;20026;-35
2024/03/26 03:28:07;;;;;;;9.27;3.95;;;6.90;99.90;;;;;;5000640;28;20075;-33
2024/03/26 03:30:32;;;;;;;7.78;3.70;;;6.80;99.90;;;;;;5000993;28;20022;-34
2024/03/26 03:32:58;;;;;;;8.98;3.67;;;6.80;99.90;;;;;;5000103;28;20032;-35
2024/03/26 03:35:24;;;;;;;9.95;4.28;;;6.80;99.90;;;;;;5000699;28;20547;-32
2024/03/26 03:37:51;;;;;;;11.00;4.18;;;6.80;99.90;;;;;;5000257;28;20024;-34
2024/03/26 03:40:17;;;;;;;6.80;3.85;;;6.80;99.90;;;;;;5000992;28;20408;-35
2024/03/26 03:42:43;;;;;;;7.18;4.00;;;6.70;99.90;;;;;;5000616;28;20097;-34
2024/03/26 03:45:09;;;;;;;7.38;3.78;;;6.70;99.90;;;;;;5000257;28;20026;-32
2024/03/26 03:47:34;;;;;;;9.30;4.10;;;6.70;99.90;;;;;;5000972;28;20777;-37
2024/03/26 03:50:00;;;;;;;8.95;4.30;;;6.70;99.90;;;;;;5000478;28;20480;-34
2024/03/26 03:52:26;;;;;;;8.63;4.20;;;6.70;99.90;;;;;;5000342;28;20033;-38
2024/03/26 03:54:52;;;;;;;9.98;3.95;;;6.60;99.90;;;;;;5000649;28;20467;-36
2024/03/26 03:57:18;;;;;;;9.82;4.45;;;6.60;99.90;;;;;;5000799;28;20460;-36
2024/03/26 03:59:44;;;;;;;6.90;3.70;;;6.60;99.90;;;;;;5000036;28;20030;-33
2024/03/26 04:02:11;;;;;;;6.47;3.80;;;6.60;99.90;;;;;;5000540;28;20099;-36
2024/03/26 04:04:36;;;;;;;12.45;4.72;;;6.60;99.90;;;;;;5000264;28;20030;-33
2024/03/26 04:07:02;;;;;;;7.28;4.25;;;6.60;99.90;;;;;;5000209;28;20049;-34
2024/03/26 04:09:28;;;;;;;9.27;4.20;;;6.50;99.90;;;;;;5000224;28;20030;-34
2024/03/26 04:11:54;;;;;;;7.93;3.45;;;6.50;99.90;;;;;;5000144;28;20609;-34
2024/03/26 04:14:19;;;;;;;11.90;4.30;;;6.50;99.90;;;;;;4999454;28;20046;-34
2024/03/26 04:16:46;;;;;;;7.60;3.90;;;6.50;99.90;;;;;;5001066;28;20034;-35
2024/03/26 04:19:15;;;;;;;10.20;4.10;;;6.50;99.90;;;;;;4999491;28;20117;-38
2024/03/26 04:21:40;;;;;;;9.18;3.90;;;6.50;99.90;;;;;;5001332;28;20555;-36
2024/03/26 04:24:07;;;;;;;7.28;4.10;;;6.50;99.90;;;;;;5003332;28;20034;-42
2024/03/26 04:26:36;;;;;;;11.02;4.40;;;6.50;99.90;;;;;;5003749;28;20660;-36
2024/03/26 04:29:02;;;;;;;11.73;3.88;;;6.50;99.90;;;;;;5002839;28;20041;-33
2024/03/26 04:31:27;;;;;;;9.13;3.78;;;6.50;99.90;;;;;;5003610;28;20069;-36
2024/03/26 04:33:53;;;;;;;8.23;4.20;;;6.50;99.90;;;;;;5003023;28;20566;-34
2024/03/26 04:36:19;;;;;;;8.98;3.83;;;6.40;99.90;;;;;;5003044;28;20068;-36
2024/03/26 04:38:45;;;;;;;10.90;4.40;;;6.40;99.90;;;;;;5003288;28;20033;-34
2024/03/26 04:41:10;;;;;;;7.75;4.70;;;6.40;99.90;;;;;;5002463;28;20439;-33
2024/03/26 04:43:36;;;;;;;7.45;4.40;;;6.40;99.90;;;;;;5004099;28;20117;-34
2024/03/26 04:46:01;;;;;;;7.50;4.05;;;6.40;99.90;;;;;;5003300;28;20070;-34
2024/03/26 04:48:27;;;;;;;8.93;3.92;;;6.30;99.90;;;;;;5003066;28;20135;-35
2024/03/26 04:50:53;;;;;;;9.57;3.70;;;6.30;99.90;;;;;;5003534;28;20048;-36
2024/03/26 04:53:18;;;;;;;9.23;3.75;;;6.30;99.90;;;;;;5003115;28;20645;-37
2024/03/26 04:55:45;;;;;;;8.90;4.60;;;6.30;99.90;;;;;;5003197;28;20026;-33
2024/03/26 04:58:11;;;;;;;8.25;3.95;;;6.30;99.90;;;;;;5002740;28;20033;-38
2024/03/26 05:00:36;;;;;;;8.68;3.92;;;6.20;99.90;;;;;;5002875;28;20083;-34
2024/03/26 05:03:05;;;;;;;6.30;3.78;;;6.20;99.90;;;;;;5002946;28;20067;-33
2024/03/26 05:05:31;;;;;;;9.25;3.88;;;6.20;99.90;;;;;;5003459;28;20030;-32
2024/03/26 05:07:56;;;;;;;7.57;4.20;;;6.20;99.90;;;;;;5003129;28;20586;-36
2024/03/26 05:10:22;;;;;;;8.15;3.30;;;6.20;99.90;;;;;;5003128;28;20026;-37
2024/03/26 05:12:48;;;;;;;8.43;3.83;;;6.20;99.90;;;;;;5003533;28;20048;-34
2024/03/26 05:15:13;;;;;;;7.90;4.00;;;6.10;99.90;;;;;;5003739;28;20026;-36
2024/03/26 05:17:39;;;;;;;9.50;3.92;;;6.10;99.90;;;;;;5001389;28;20065;-36
2024/03/26 05:20:05;;;;;;;10.32;4.38;;;6.10;99.90;;;;;;5002891;28;20025;-35
2024/03/26 05:22:31;;;;;;;9.25;4.65;;;6.10;99.90;;;;;;5002777;28;20033;-36
2024/03/26 05:24:56;;;;;;;6.68;3.72;;;6.10;99.90;;;;;;5002294;28;20045;-34
2024/03/26 05:27:22;;;;;;;10.32;4.35;;;6.10;99.90;;;;;;5002790;28;20037;-35
2024/03/26 05:29:50;;;;;;;10.45;4.20;;;6.10;99.90;;;;;;5002173;28;20048;-35
2024/03/26 05:32:16;;;;;;;8.15;3.83;;;6.10;99.90;;;;;;5002174;28;20073;-35
2024/03/26 05:34:41;;;;;;;8.68;4.00;;;6.10;99.90;;;;;;5002869;28;20467;-32
2024/03/26 05:37:07;;;;;;;10.10;4.30;;;6.10;99.90;;;;;;5002031;28;20260;-31
2024/03/26 05:39:32;;;;;;;8.63;3.88;;;6.10;99.90;;;;;;5002530;28;20038;-37
2024/03/26 05:41:58;;;;;;;9.00;3.95;;;6.10;99.90;;;;;;5002305;28;20105;-33
2024/03/26 05:44:23;;;;;;;4.85;3.67;;;6.00;99.90;;;;;;5002018;28;20026;-36
2024/03/26 05:46:49;;;;;;;7.25;3.90;;;6.10;99.90;;;;;;5002386;28;20022;-37
2024/03/26 05:49:14;;;;;;;7.55;3.60;;;6.10;99.90;;;;;;5002102;28;20030;-33
2024/03/26 05:51:40;;;;;;;5.68;3.80;;;6.10;99.90;;;;;;5001606;28;20025;-33
2024/03/26 05:54:06;;;;;;;9.20;3.63;;;6.10;99.90;;;;;;5001268;28;20045;-35
2024/03/26 05:56:31;;;;;;;6.45;4.00;;;6.10;99.90;;;;;;5001664;28;20030;-35
2024/03/26 05:58:57;;;;;;;8.57;4.10;;;6.10;99.90;;;;;;5001007;28;20072;-33
2024/03/26 06:01:23;;;;;;;8.43;4.10;;;6.10;99.90;;;;;;5002121;28;20053;-37
2024/03/26 06:03:49;;;;;;;8.95;3.92;;;6.10;99.90;;;;;;5001832;28;20069;-38
2024/03/26 06:06:14;;;;;;;6.82;3.83;;;6.10;99.90;;;;;;5002092;28;20060;-34
2024/03/26 06:08:40;;;;;;;7.60;3.85;;;6.10;99.90;;;;;;5001976;28;20026;-34
2024/03/26 06:11:05;;;;;;;5.82;4.07;;;6.20;99.90;;;;;;5001135;28;20136;-32
2024/03/26 06:13:31;;;;;;;9.75;3.97;;;6.20;99.90;;;;;;5000878;28;20779;-33
2024/03/26 06:16:11;;;;;;;8.73;4.05;;;6.10;99.90;;;;;;5001318;28;20647;-36
2024/03/26 06:18:37;;;;;;;6.25;3.83;;;6.20;99.90;;;;;;5001601;28;20040;-33
2024/03/26 06:21:04;;;;;;;9.93;3.85;;;6.20;99.90;;;;;;5000768;28;20118;-32
2024/03/26 06:23:30;;;;;;;6.45;4.45;;;6.20;99.90;;;;;;5001044;28;20034;-31
2024/03/26 06:25:59;;;;;;;6.80;4.15;;;6.20;99.90;;;;;;5000397;28;20022;-33
2024/03/26 06:28:25;;;;;;;9.63;4.43;;;6.20;99.90;;;;;;5000335;28;20092;-33
2024/03/26 06:30:51;;;;;;;8.63;4.13;;;6.30;99.90;;;;;;5000674;28;20038;-35
2024/03/26 06:33:17;;;;;;;9.35;4.43;;;6.30;99.90;;;;;;5000298;28;20048;-33
2024/03/26 06:35:43;;;;;;;8.93;4.45;;;6.30;99.90;;;;;;5000575;28;20052;-33
2024/03/26 06:38:09;;;;;;;8.90;4.15;;;6.30;99.90;;;;;;5000047;28;20496;-34
2024/03/26 06:40:35;;;;;;;7.13;4.53;;;6.30;99.90;;;;;;4998355;28;20084;-36
2024/03/26 06:43:02;;;;;;;7.00;4.47;;;6.40;99.90;;;;;;5000406;28;20033;-36
2024/03/26 06:45:27;;;;;;;7.75;4.18;;;6.40;99.90;;;;;;4998882;28;20055;-33
2024/03/26 06:47:53;;;;;;;10.82;4.05;;;6.40;99.90;;;;;;4999702;28;20632;-33
2024/03/26 06:50:18;;;;;;;11.60;4.45;;;6.50;99.90;;;;;;4999621;28;20041;-34
2024/03/26 06:52:47;;;;;;;8.30;3.92;;;6.50;99.90;;;;;;5000471;28;20556;-35
2024/03/26 06:55:16;;;;;;;8.18;4.78;;;6.60;99.90;;;;;;4999211;28;20041;-35
2024/03/26 06:57:42;;;;;;;6.82;3.72;;;6.60;99.90;;;;;;5000613;28;20032;-33
2024/03/26 07:00:09;;;;;;;12.60;4.65;;;6.60;99.90;;;;;;4999376;28;20132;-34
2024/03/26 07:02:35;;;;;;;9.25;4.40;;;6.60;99.90;;;;;;5000004;28;20208;-36
2024/03/26 07:05:02;;;;;;;12.23;4.10;;;6.60;99.90;;;;;;5000326;28;20100;-34
2024/03/26 07:07:27;;;;;;;9.73;4.65;;;6.70;99.90;;;;;;5000082;28;20030;-38
2024/03/26 07:09:53;;;;;;;6.88;4.13;;;6.70;99.90;;;;;;4999565;28;20026;-36
2024/03/26 07:12:19;;;;;;;9.48;4.32;;;6.70;99.90;;;;;;5000019;28;20076;-34
2024/03/26 07:14:44;;;;;;;6.95;4.72;;;6.80;99.90;;;;;;4999829;28;20029;-34
2024/03/26 07:17:12;;;;;;;9.93;4.20;;;6.80;99.90;;;;;;4999541;28;20101;-35
2024/03/26 07:19:38;;;;;;;6.82;4.22;;;6.80;99.90;;;;;;5000934;28;20034;-36
2024/03/26 07:22:04;;;;;;;7.65;4.55;;;6.80;99.90;;;;;;5000047;28;20024;-33
2024/03/26 07:24:29;;;;;;;7.78;4.40;;;6.90;99.90;;;;;;5000820;28;20033;-33
2024/03/26 07:26:55;;;;;;;6.18;3.95;;;6.90;99.90;;;;;;5000215;28;20811;-34
2024/03/26 07:29:20;;;;;;;5.97;3.90;;;7.00;99.90;;;;;;5000186;28;20699;-34
2024/03/26 07:31:49;;;;;;;6.28;3.53;;;7.00;99.90;;;;;;4999308;28;20243;-35
2024/03/26 07:34:15;;;;;;;8.15;4.68;;;7.10;99.90;;;;;;4999218;28;20057;-35
2024/03/26 07:36:41;;;;;;;8.82;3.58;;;7.10;99.90;;;;;;5000263;28;20120;-36
2024/03/26 07:39:11;;;;;;;7.60;3.83;;;7.20;99.90;;;;;;4999575;28;20038;-35
2024/03/26 07:41:36;;;;;;;6.13;3.70;;;7.20;99.90;;;;;;4999985;28;20764;-36
2024/03/26 07:44:03;;;;;;;7.30;4.15;;;7.30;99.90;;;;;;4999304;28;20041;-36
2024/03/26 07:46:31;;;;;;;6.35;3.72;;;7.40;99.90;;;;;;4999849;28;20026;-34
2024/03/26 07:48:57;;;;;;;10.93;4.53;;;7.40;99.90;;;;;;4998972;28;20034;-34
2024/03/26 07:51:23;;;;;;;7.57;3.63;;;7.50;99.90;;;;;;4999139;28;20041;-34
2024/03/26 07:53:49;;;;;;;6.45;3.97;;;7.50;99.90;;;;;;5000113;28;20477;-33
2024/03/26 07:56:15;;;;;;;6.85;4.25;;;7.60;99.90;;;;;;5000474;28;20026;-34
2024/03/26 07:58:40;;;;;;;5.68;3.50;;;7.60;99.90;;;;;;5004406;28;20053;-36
2024/03/26 08:01:06;;;;;;;7.30;3.72;;;7.70;99.90;;;;;;5003924;28;20100;-36
2024/03/26 08:03:31;;;;;;;7.15;4.05;;;7.80;99.90;;;;;;5003377;28;20030;-34
2024/03/26 08:06:00;;;;;;;5.47;3.42;;;7.80;99.90;;;;;;5003209;28;20030;-34
2024/03/26 08:08:26;;;;;;;5.22;3.47;;;7.90;99.90;;;;;;5003697;28;20038;-35
2024/03/26 08:10:52;;;;;;;5.93;3.75;;;7.90;99.90;;;;;;5004087;28;20041;-34
2024/03/26 08:13:20;;;;;;;7.00;3.50;;;7.90;99.90;;;;;;5002861;28;20042;-35
2024/03/26 08:15:46;;;;;;;5.97;3.58;;;8.00;99.90;;;;;;5003445;28;20113;-35
2024/03/26 08:18:11;;;;;;;5.53;3.90;;;8.10;99.90;;;;;;5002810;28;20106;-37
2024/03/26 08:20:40;;;;;;;7.82;4.88;;;8.10;99.90;;;;;;5003441;28;20022;-32
2024/03/26 08:23:06;;;;;;;7.80;3.92;;;8.20;99.90;;;;;;5003093;28;20034;-34
2024/03/26 08:25:32;;;;;;;5.00;3.45;;;8.30;99.90;;;;;;5003568;28;20030;-35
2024/03/26 08:27:58;;;;;;;6.55;3.63;;;8.40;99.90;;;;;;5002384;28;20026;-36
2024/03/26 08:30:27;;;;;;;7.85;4.18;;;8.50;99.90;;;;;;5002834;28;20064;-33
2024/03/26 08:32:52;;;;;;;5.63;3.70;;;8.50;99.90;;;;;;5003054;28;20029;-33
2024/03/26 08:35:20;;;;;;;6.60;4.00;;;8.60;99.90;;;;;;5002893;28;20044;-34
2024/03/26 08:37:49;;;;;;;5.18;3.72;;;8.60;99.90;;;;;;5002907;28;20022;-33
2024/03/26 08:40:17;;;;;;;7.22;3.90;;;8.70;99.90;;;;;;5002780;28;20037;-36
2024/03/26 08:42:42;;;;;;;6.15;4.13;;;8.70;99.90;;;;;;5003410;28;20045;-32
2024/03/26 08:45:08;;;;;;;5.60;4.07;;;8.70;99.90;;;;;;5002444;28;20117;-35
2024/03/26 08:47:34;;;;;;;6.05;3.78;;;8.70;99.90;;;;;;5002483;28;20042;-36
2024/03/26 08:50:00;;;;;;;7.72;3.70;;;8.80;99.90;;;;;;5003137;28;20014;-36
2024/03/26 08:52:25;;;;;;;6.43;3.80;;;8.80;99.90;;;;;;5002723;28;20096;-36
2024/03/26 08:54:51;;;;;;;8.57;4.10;;;8.80;99.90;;;;;;5002114;28;20029;-36
2024/03/26 08:57:17;;;;;;;6.45;3.75;;;8.80;99.90;;;;;;5002586;28;20842;-37
2024/03/26 08:59:44;;;;;;;5.03;3.88;;;8.80;99.90;;;;;;5003145;28;20041;-34
2024/03/26 09:02:09;;;;;;;6.07;3.38;;;8.90;99.90;;;;;;5002439;28;20033;-36
2024/03/26 09:04:36;;;;;;;5.93;3.70;;;8.90;99.90;;;;;;5002682;28;20022;-34
2024/03/26 09:07:01;;;;;;;7.22;3.83;;;8.90;99.90;;;;;;5002239;28;20412;-35
2024/03/26 09:09:30;;;;;;;7.20;3.90;;;9.00;99.90;;;;;;5001709;28;20456;-35
2024/03/26 09:11:55;;;;;;;6.00;3.80;;;9.00;99.90;;;;;;5002237;28;20133;-35
2024/03/26 09:14:21;;;;;;;7.60;3.80;;;9.00;99.90;;;;;;5002102;28;20034;-36
2024/03/26 09:16:47;;;;;;;6.57;4.03;;;9.10;99.90;;;;;;5001224;28;20030;-37
2024/03/26 09:19:13;;;;;;;7.93;4.10;;;9.10;99.90;;;;;;5002575;28;20113;-36
2024/03/26 09:21:38;;;;;;;5.75;3.65;;;9.20;99.90;;;;;;5002371;28;20030;-32
2024/03/26 09:24:04;;;;;;;5.28;3.92;;;9.30;99.90;;;;;;5001934;28;20044;-36
2024/03/26 09:26:29;;;;;;;6.45;3.88;;;9.30;99.90;;;;;;5002406;28;20032;-36
2024/03/26 09:28:56;;;;;;;10.05;4.60;;;9.30;99.90;;;;;;5001937;28;20057;-35
2024/03/26 09:31:24;;;;;;;7.72;4.15;;;9.40;99.90;;;;;;5001965;28;20080;-39
2024/03/26 09:33:54;;;;;;;9.00;3.97;;;9.40;99.90;;;;;;5002292;28;20062;-36
2024/03/26 09:36:19;;;;;;;6.22;3.67;;;9.40;99.90;;;;;;5001300;28;20575;-33
2024/03/26 09:38:48;;;;;;;11.35;4.57;;;9.40;99.90;;;;;;5002059;28;20026;-33
2024/03/26 09:41:18;;;;;;;7.32;4.60;;;9.50;99.90;;;;;;5001444;28;20029;-35
2024/03/26 09:43:44;;;;;;;5.75;4.38;;;9.50;99.90;;;;;;5002187;28;20037;-34
2024/03/26 09:46:12;;;;;;;7.75;3.78;;;9.60;99.90;;;;;;5001012;28;20030;-36
2024/03/26 09:48:37;;;;;;;5.70;3.67;;;9.60;99.90;;;;;;5002437;28;20068;-36
2024/03/26 09:51:06;;;;;;;4.97;3.58;;;9.70;99.90;;;;;;5001702;28;20091;-35
2024/03/26 09:53:33;;;;;;;6.10;4.05;;;9.80;99.90;;;;;;5002769;28;20045;-41
2024/03/26 09:55:59;;;;;;;6.43;3.92;;;9.80;99.90;;;;;;5001493;28;20026;-36
2024/03/26 09:58:25;;;;;;;7.43;4.05;;;9.90;99.90;;;;;;5001200;28;20038;-36
2024/03/26 10:00:50;;;;;;;6.63;3.72;;;9.90;99.90;;;;;;5001804;28;20022;-37
2024/03/26 10:03:20;;;;;;;5.47;3.47;;;10.00;99.90;;;;;;5001382;28;20137;-37
2024/03/26 10:05:49;;;;;;;8.07;4.32;;;10.00;99.90;;;;;;5000842;28;20025;-33
2024/03/26 10:08:14;;;;;;;7.18;4.00;;;10.10;99.90;;;;;;4999325;28;20033;-31
2024/03/26 10:10:43;;;;;;;7.30;3.70;;;10.20;99.90;;;;;;4999494;28;20089;-34
2024/03/26 10:13:11;;;;;;;5.60;4.28;;;10.20;99.90;;;;;;4987965;28;20067;-36
2024/03/26 10:15:40;;;;;;;6.75;4.03;;;10.20;99.90;;;;;;4999623;28;20018;-33
2024/03/26 10:18:06;;;;;;;8.43;4.10;;;10.20;99.90;;;;;;4998830;28;20025;-34
2024/03/26 10:20:32;;;;;;;5.30;3.88;;;10.30;99.90;;;;;;4999121;28;20033;-35
2024/03/26 10:23:06;;;;;;;9.15;4.20;;;10.30;99.90;;;;;;5001119;28;20018;-35
2024/03/26 10:25:34;;;;;;;7.28;4.32;;;10.40;99.90;;;;;;5001676;28;20037;-37
2024/03/26 10:28:03;;;;;;;6.75;4.07;;;10.40;99.90;;;;;;5000640;28;20018;-34
2024/03/26 10:30:29;;;;;;;6.78;4.18;;;10.50;99.90;;;;;;5000370;28;20034;-35
2024/03/26 10:32:59;;;;;;;6.28;3.78;;;10.50;99.90;;;;;;4999942;28;20812;-36
2024/03/26 10:35:26;;;;;;;8.02;4.05;;;10.50;99.90;;;;;;5001075;28;20045;-36
2024/03/26 10:37:53;;;;;;;6.22;3.78;;;10.60;99.90;;;;;;5000970;28;20029;-33
2024/03/26 10:40:28;;;;;;;4.47;3.65;;;10.60;99.90;;;;;;5000258;28;20033;-36
2024/03/26 10:42:58;;;;;;;7.22;3.67;;;10.70;99.90;;;;;;5000495;28;20034;-37
2024/03/26 10:45:24;;;;;;;6.05;3.65;;;10.70;99.90;;;;;;5000733;28;20429;-33
2024/03/26 10:47:52;;;;;;;6.65;4.32;;;10.80;99.90;;;;;;4999426;28;20025;-35
2024/03/26 10:50:22;;;;;;;6.30;3.85;;;10.90;99.90;;;;;;5000110;28;20540;-33
2024/03/26 10:52:48;;;;;;;8.55;3.90;;;10.90;99.90;;;;;;5000021;28;20104;-37
2024/03/26 10:55:14;;;;;;;5.15;3.72;;;10.90;99.90;;;;;;4999904;28;20037;-35
2024/03/26 10:57:44;;;;;;;6.65;3.97;;;11.00;99.90;;;;;;4999733;28;20081;-32
2024/03/26 11:00:14;;;;;;;7.72;3.85;;;11.10;99.90;;;;;;4998847;28;20771;-35
2024/03/26 11:02:43;;;;;;;4.93;3.70;;;11.10;99.90;;;;;;4998953;28;20472;-36
2024/03/26 11:05:09;;;;;;;3.75;3.00;;;11.20;99.90;;;;;;4998601;28;20112;-34
2024/03/26 11:07:37;;;;;;;4.90;3.22;;;11.20;99.90;;;;;;4998963;28;20612;-38
2024/03/26 11:10:16;;;;;;;4.22;3.30;;;11.30;99.90;;;;;;4988149;28;20049;-34
2024/03/26 11:12:42;;;;;;;4.55;3.15;;;11.40;99.90;;;;;;4999213;28;20017;-35
2024/03/26 11:15:17;;;;;;;6.88;2.65;;;11.50;99.90;;;;;;4999502;28;20227;-35
2024/03/26 11:17:52;;;;;;;3.35;2.50;;;11.50;99.90;;;;;;5000703;28;20435;-36
2024/03/26 11:20:20;;;;;;;3.47;2.90;;;11.60;99.90;;;;;;5000354;28;20049;-37
2024/03/26 11:22:46;;;;;;;5.22;2.80;;;11.70;99.90;;;;;;5000573;28;20030;-37
2024/03/26 11:25:22;;;;;;;4.55;2.70;;;11.80;99.90;;;;;;5000244;28;20032;-36
2024/03/26 11:27:48;;;;;;;4.43;2.50;;;11.90;99.90;;;;;;5000848;28;20034;-33
2024/03/26 11:30:15;;;;;;;4.78;2.50;;;11.90;99.90;;;;;;5000392;28;20687;-36
2024/03/26 11:32:40;;;;;;;3.72;2.20;;;11.90;99.90;;;;;;5004527;28;20026;-33
2024/03/26 11:35:32;;;;;;;2.22;1.90;;;12.00;99.90;;;;;;5003249;28;20038;-30
2024/03/26 11:38:00;;;;;;;2.67;2.00;;;12.10;99.90;;;;;;5000540;28;20037;-35
2024/03/26 11:40:26;;;;;;;5.10;2.13;;;12.20;99.90;;;;;;5003882;28;20022;-35
2024/03/26 11:42:53;;;;;;;2.60;1.92;;;12.30;99.90;;;;;;5003402;28;20556;-34
2024/03/26 11:45:19;;;;;;;4.45;2.97;;;12.30;99.90;;;;;;5002831;28;20376;-34
2024/03/26 11:47:45;;;;;;;4.60;2.40;;;12.30;99.90;;;;;;5003683;28;20026;-36
2024/03/26 11:50:11;;;;;;;5.53;2.47;;;12.40;99.90;;;;;;5002692;28;20042;-33
2024/03/26 11:52:38;;;;;;;4.75;2.38;;;12.40;99.90;;;;;;5004158;28;20029;-37
2024/03/26 11:55:06;;;;;;;3.55;2.20;;;12.40;99.90;;;;;;5002363;28;20823;-38
2024/03/26 11:57:32;;;;;;;4.22;2.50;;;12.50;99.90;;;;;;5003784;28;20113;-36
2024/03/26 11:59:57;;;;;;;4.55;2.63;;;12.60;99.90;;;;;;5003631;28;20092;-36
2024/03/26 12:02:23;;;;;;;5.60;2.70;;;12.70;99.90;;;;;;5003588;28;20736;-34
2024/03/26 12:04:49;;;;;;;4.22;2.67;;;12.70;99.90;;;;;;5002450;28;20026;-34
2024/03/26 12:07:22;;;;;;;5.32;2.70;;;12.70;99.90;;;;;;5003084;28;20022;-36
2024/03/26 12:09:48;;;;;;;4.93;2.17;;;12.80;99.90;;;;;;5003249;28;20513;-37
2024/03/26 12:12:14;;;;;;;3.10;2.30;;;12.80;99.90;;;;;;5002672;28;20026;-35
2024/03/26 12:14:40;;;;;;;2.95;2.22;;;12.90;99.90;;;;;;5003246;28;20046;-36
2024/03/26 12:17:09;;;;;;;3.38;2.42;;;12.90;99.90;;;;;;5002497;28;20037;-37
2024/03/26 12:19:34;;;;;;;4.47;2.33;;;13.00;99.90;;;;;;5002087;28;20037;-33
2024/03/26 12:22:16;;;;;;;2.63;2.00;;;13.00;99.90;;;;;;5002848;28;20026;-35
2024/03/26 12:24:42;;;;;;;2.90;2.00;;;13.00;99.90;;;;;;5003315;28;20025;-35
2024/03/26 12:27:10;;;;;;;2.22;1.95;;;13.10;99.90;;;;;;5002219;28;20431;-35
2024/03/26 12:29:38;;;;;;;1.92;1.73;;;13.10;99.90;;;;;;5003721;28;20041;-34
2024/03/26 12:32:05;;;;;;;2.60;1.75;;;13.20;99.90;;;;;;5002893;28;20695;-34
2024/03/26 12:34:34;;;;;;;2.78;1.92;;;13.20;99.90;;;;;;5003543;28;20041;-33
2024/03/26 12:37:01;;;;;;;2.25;2.00;;;13.20;99.90;;;;;;5002818;28;20756;-31
2024/03/26 12:39:29;;;;;;;5.07;2.30;;;13.20;99.90;;;;;;5002769;28;20409;-36
2024/03/26 12:41:55;;;;;;;6.68;2.90;;;13.20;99.90;;;;;;5002193;28;20076;-37
2024/03/26 12:44:20;;;;;;;3.88;2.65;;;13.20;99.90;;;;;;5002817;28;20038;-37
2024/03/26 12:46:46;;;;;;;3.35;2.33;;;13.30;99.90;;;;;;5002366;28;20030;-35
2024/03/26 12:49:17;;;;;;;4.13;2.50;;;13.40;99.90;;;;;;5002104;28;20026;-31